UAE63Q OMDB-ENGM
Flight info
| Callsign | UAE63Q |
|---|---|
| Flight time | N/A |
| Altitude | 38000 |
| Route | RIDAP M557 TUMAK L602 GADSI M860 NAMDI/N0487F400 M860 NINVA UM860 ODALI UL852 NEGEM DCT ARGES DCT KENIN DCT UNBEK DCT PENOR DCT KSD Z259 ESEBA |
| Aircraft | A359/H-SDE2E3GHIJ3J4J5LM1ORWXY/LB1D1 |
Departure
| Time | 2026-05-04 02:44 |
|---|---|
| Airport | Dubai International Airport (OMDB) |
Arrival
| Time | N/A |
|---|---|
| Airport | Oslo-Gardermoen International Airport (ENGM) |
| Time | Latitude | Longitude | Altitude | Speed | Heading |
|---|---|---|---|---|---|
| 2026-05-04 02:27 | 25.24807 | 55.36436 | 27 ft | 0 kts | 211° |
| 2026-05-04 02:33 | 25.24808 | 55.36436 | 27 ft | 2 kts | 211° |
| 2026-05-04 02:33 | 25.24822 | 55.36445 | 27 ft | 2 kts | 213° |
| 2026-05-04 02:33 | 25.24836 | 55.36456 | 26 ft | 2 kts | 214° |
| 2026-05-04 02:34 | 25.24849 | 55.36466 | 26 ft | 2 kts | 217° |
| 2026-05-04 02:34 | 25.24862 | 55.36478 | 26 ft | 2 kts | 223° |
| 2026-05-04 02:34 | 25.24873 | 55.36491 | 25 ft | 2 kts | 242° |
| 2026-05-04 02:34 | 25.24876 | 55.36509 | 26 ft | 2 kts | 291° |
| 2026-05-04 02:35 | 25.24873 | 55.36517 | 24 ft | 0 kts | 300° |
| 2026-05-04 02:39 | 25.24877 | 55.36510 | 28 ft | 4 kts | 301° |
| 2026-05-04 02:40 | 25.24902 | 55.36463 | 28 ft | 10 kts | 301° |
| 2026-05-04 02:40 | 25.24958 | 55.36409 | 28 ft | 13 kts | 326° |
| 2026-05-04 02:40 | 25.25043 | 55.36390 | 28 ft | 11 kts | 20° |
| 2026-05-04 02:40 | 25.25116 | 55.36437 | 30 ft | 13 kts | 31° |
| 2026-05-04 02:41 | 25.25131 | 55.36446 | 30 ft | 0 kts | 31° |
| 2026-05-04 02:42 | 25.25134 | 55.36448 | 30 ft | 2 kts | 31° |
| 2026-05-04 02:42 | 25.25175 | 55.36475 | 32 ft | 12 kts | 31° |
| 2026-05-04 02:42 | 25.25214 | 55.36540 | 33 ft | 8 kts | 90° |
| 2026-05-04 02:43 | 25.25185 | 55.36617 | 34 ft | 14 kts | 122° |
| 2026-05-04 02:43 | 25.25114 | 55.36741 | 34 ft | 27 kts | 122° |
| 2026-05-04 02:43 | 25.24901 | 55.37124 | 36 ft | 90 kts | 121° |
| 2026-05-04 02:43 | 25.24475 | 55.37893 | 36 ft | 143 kts | 120° |
| 2026-05-04 02:44 | 25.23898 | 55.38942 | 280 ft | 168 kts | 124° |
| 2026-05-04 02:44 | 25.23290 | 55.40036 | 887 ft | 167 kts | 123° |
| 2026-05-04 02:44 | 25.22651 | 55.41177 | 1194 ft | 183 kts | 122° |
| 2026-05-04 02:44 | 25.21949 | 55.42435 | 1347 ft | 202 kts | 122° |
| 2026-05-04 02:45 | 25.21134 | 55.43810 | 1436 ft | 226 kts | 129° |
| 2026-05-04 02:45 | 25.19822 | 55.44819 | 1622 ft | 238 kts | 168° |
| 2026-05-04 02:45 | 25.18218 | 55.44725 | 2033 ft | 231 kts | 207° |
| 2026-05-04 02:45 | 25.16866 | 55.43847 | 2587 ft | 229 kts | 219° |
| 2026-05-04 02:46 | 25.15569 | 55.42831 | 3133 ft | 229 kts | 221° |
| 2026-05-04 02:46 | 25.14506 | 55.41553 | 3623 ft | 226 kts | 244° |
| 2026-05-04 02:46 | 25.14098 | 55.39910 | 4084 ft | 224 kts | 271° |
| 2026-05-04 02:46 | 25.14205 | 55.38197 | 4615 ft | 225 kts | 277° |
| 2026-05-04 02:47 | 25.14390 | 55.36472 | 5236 ft | 227 kts | 277° |
| 2026-05-04 02:47 | 25.14564 | 55.34737 | 5863 ft | 229 kts | 276° |
| 2026-05-04 02:47 | 25.14730 | 55.32982 | 6462 ft | 231 kts | 275° |
| 2026-05-04 02:47 | 25.14891 | 55.31214 | 7094 ft | 232 kts | 275° |
| 2026-05-04 02:48 | 25.15168 | 55.29460 | 7715 ft | 236 kts | 283° |
| 2026-05-04 02:48 | 25.15599 | 55.27642 | 8037 ft | 254 kts | 284° |
| 2026-05-04 02:48 | 25.16081 | 55.25723 | 8502 ft | 264 kts | 284° |
| 2026-05-04 02:48 | 25.16598 | 55.23761 | 9163 ft | 268 kts | 287° |
| 2026-05-04 02:49 | 25.17412 | 55.21900 | 9849 ft | 272 kts | 298° |
| 2026-05-04 02:49 | 25.18412 | 55.20102 | 10348 ft | 282 kts | 300° |
| 2026-05-04 02:49 | 25.19486 | 55.18215 | 10607 ft | 299 kts | 301° |
| 2026-05-04 02:49 | 25.20624 | 55.16210 | 10867 ft | 316 kts | 301° |
| 2026-05-04 02:50 | 25.21813 | 55.14103 | 11108 ft | 330 kts | 301° |
| 2026-05-04 02:50 | 25.23052 | 55.11903 | 11355 ft | 344 kts | 301° |
| 2026-05-04 02:50 | 25.24339 | 55.09619 | 11610 ft | 356 kts | 301° |
| 2026-05-04 02:50 | 25.25654 | 55.07279 | 11998 ft | 362 kts | 302° |
| 2026-05-04 02:51 | 25.26984 | 55.04900 | 12454 ft | 365 kts | 302° |
| 2026-05-04 02:51 | 25.28325 | 55.02504 | 12912 ft | 369 kts | 302° |
| 2026-05-04 02:51 | 25.29679 | 55.00082 | 13387 ft | 371 kts | 303° |
| 2026-05-04 02:51 | 25.31046 | 54.97644 | 13809 ft | 375 kts | 303° |
| 2026-05-04 02:52 | 25.32417 | 54.95189 | 14254 ft | 376 kts | 303° |
| 2026-05-04 02:52 | 25.33791 | 54.92722 | 14699 ft | 378 kts | 302° |
| 2026-05-04 02:52 | 25.34641 | 54.91037 | 14987 ft | 380 kts | 297° |
| 2026-05-04 02:52 | 25.35599 | 54.88300 | 15435 ft | 383 kts | 290° |
| 2026-05-04 02:53 | 25.36408 | 54.85486 | 15902 ft | 385 kts | 289° |
| 2026-05-04 02:53 | 25.37206 | 54.82651 | 16348 ft | 387 kts | 289° |
| 2026-05-04 02:53 | 25.38012 | 54.79804 | 16800 ft | 389 kts | 289° |
| 2026-05-04 02:53 | 25.38825 | 54.76941 | 17280 ft | 391 kts | 289° |
| 2026-05-04 02:54 | 25.39643 | 54.74070 | 17738 ft | 393 kts | 289° |
| 2026-05-04 02:54 | 25.40467 | 54.71179 | 18177 ft | 395 kts | 289° |
| 2026-05-04 02:54 | 25.41299 | 54.68273 | 18555 ft | 398 kts | 289° |
| 2026-05-04 02:54 | 25.42130 | 54.65348 | 18921 ft | 400 kts | 289° |
| 2026-05-04 02:55 | 25.43817 | 54.59435 | 19687 ft | 406 kts | 289° |
| 2026-05-04 02:55 | 25.44693 | 54.56458 | 20085 ft | 408 kts | 289° |
| 2026-05-04 02:55 | 25.45583 | 54.53464 | 20475 ft | 411 kts | 289° |
| 2026-05-04 02:56 | 25.46481 | 54.50453 | 20875 ft | 413 kts | 289° |
| 2026-05-04 02:56 | 25.47379 | 54.47436 | 21288 ft | 416 kts | 289° |
| 2026-05-04 02:56 | 25.48283 | 54.44392 | 21697 ft | 419 kts | 289° |
| 2026-05-04 02:56 | 25.49193 | 54.41315 | 22083 ft | 422 kts | 289° |
| 2026-05-04 02:57 | 25.50106 | 54.38220 | 22498 ft | 425 kts | 289° |
| 2026-05-04 02:57 | 25.51024 | 54.35102 | 22903 ft | 427 kts | 289° |
| 2026-05-04 02:57 | 25.51946 | 54.31966 | 23310 ft | 430 kts | 289° |
| 2026-05-04 02:57 | 25.52875 | 54.28804 | 23674 ft | 432 kts | 289° |
| 2026-05-04 02:58 | 25.53804 | 54.25641 | 24073 ft | 433 kts | 288° |
| 2026-05-04 02:58 | 25.54739 | 54.22461 | 24493 ft | 434 kts | 288° |
| 2026-05-04 02:58 | 25.55674 | 54.19281 | 24920 ft | 435 kts | 288° |
| 2026-05-04 02:58 | 25.56610 | 54.16092 | 25364 ft | 437 kts | 288° |
| 2026-05-04 02:59 | 25.57548 | 54.12887 | 25801 ft | 438 kts | 288° |
| 2026-05-04 02:59 | 25.58488 | 54.09673 | 26254 ft | 439 kts | 288° |
| 2026-05-04 02:59 | 25.59429 | 54.06452 | 26694 ft | 441 kts | 288° |
| 2026-05-04 02:59 | 25.60372 | 54.03213 | 27125 ft | 442 kts | 288° |
| 2026-05-04 03:00 | 25.61301 | 53.99963 | 27567 ft | 444 kts | 287° |
| 2026-05-04 03:00 | 25.62228 | 53.96694 | 28013 ft | 445 kts | 287° |
| 2026-05-04 03:00 | 25.63155 | 53.93416 | 28436 ft | 447 kts | 287° |
| 2026-05-04 03:00 | 25.64087 | 53.90121 | 28836 ft | 449 kts | 287° |
| 2026-05-04 03:01 | 25.65024 | 53.86818 | 29223 ft | 450 kts | 287° |
| 2026-05-04 03:01 | 25.65964 | 53.83502 | 29607 ft | 452 kts | 287° |
| 2026-05-04 03:01 | 25.66909 | 53.80172 | 29951 ft | 454 kts | 287° |
| 2026-05-04 03:01 | 25.67857 | 53.76829 | 30232 ft | 456 kts | 287° |
| 2026-05-04 03:02 | 25.68808 | 53.73471 | 30500 ft | 458 kts | 287° |
| 2026-05-04 03:02 | 25.69755 | 53.70140 | 30758 ft | 460 kts | 287° |
| 2026-05-04 03:02 | 25.70712 | 53.66752 | 31012 ft | 461 kts | 286° |
| 2026-05-04 03:02 | 25.71663 | 53.63363 | 31402 ft | 460 kts | 286° |
| 2026-05-04 03:03 | 25.72609 | 53.59983 | 31814 ft | 458 kts | 286° |
| 2026-05-04 03:03 | 25.73563 | 53.56576 | 32207 ft | 456 kts | 286° |
| 2026-05-04 03:03 | 25.74490 | 53.53262 | 32588 ft | 455 kts | 286° |
| 2026-05-04 03:03 | 25.75427 | 53.49916 | 32972 ft | 453 kts | 285° |
| 2026-05-04 03:04 | 25.76362 | 53.46586 | 33340 ft | 452 kts | 285° |
| 2026-05-04 03:04 | 25.77296 | 53.43256 | 33693 ft | 451 kts | 285° |
| 2026-05-04 03:04 | 25.78228 | 53.39934 | 33999 ft | 451 kts | 285° |
| 2026-05-04 03:04 | 25.79157 | 53.36617 | 34273 ft | 450 kts | 285° |
| 2026-05-04 03:05 | 25.80085 | 53.33303 | 34568 ft | 449 kts | 285° |
| 2026-05-04 03:05 | 25.81009 | 53.29998 | 34837 ft | 449 kts | 285° |
| 2026-05-04 03:05 | 25.81933 | 53.26688 | 35099 ft | 448 kts | 285° |
| 2026-05-04 03:05 | 25.82855 | 53.23384 | 35351 ft | 448 kts | 285° |
| 2026-05-04 03:06 | 25.83790 | 53.20084 | 35606 ft | 448 kts | 287° |
| 2026-05-04 03:06 | 25.84933 | 53.16866 | 35866 ft | 449 kts | 291° |
| 2026-05-04 03:06 | 25.86177 | 53.13683 | 36105 ft | 449 kts | 291° |
| 2026-05-04 03:06 | 25.87447 | 53.10521 | 36357 ft | 449 kts | 291° |
| 2026-05-04 03:07 | 25.88734 | 53.07363 | 36606 ft | 448 kts | 292° |
| 2026-05-04 03:07 | 25.90022 | 53.04217 | 36846 ft | 448 kts | 292° |
| 2026-05-04 03:07 | 25.91311 | 53.01067 | 37085 ft | 447 kts | 292° |
| 2026-05-04 03:07 | 25.92593 | 52.97925 | 37314 ft | 447 kts | 291° |
| 2026-05-04 03:08 | 25.93874 | 52.94779 | 37539 ft | 446 kts | 291° |
| 2026-05-04 03:08 | 25.95149 | 52.91638 | 37751 ft | 446 kts | 291° |
| 2026-05-04 03:08 | 25.96428 | 52.88484 | 37813 ft | 449 kts | 291° |
| 2026-05-04 03:09 | 25.98989 | 52.82153 | 37814 ft | 449 kts | 291° |
| 2026-05-04 03:09 | 26.01547 | 52.75823 | 37815 ft | 449 kts | 291° |
| 2026-05-04 03:10 | 26.04209 | 52.69547 | 37818 ft | 449 kts | 294° |
| 2026-05-04 03:10 | 26.07052 | 52.63356 | 37819 ft | 449 kts | 294° |
| 2026-05-04 03:11 | 26.09874 | 52.57201 | 37816 ft | 449 kts | 294° |
| 2026-05-04 03:11 | 26.12703 | 52.50954 | 37816 ft | 449 kts | 294° |
| 2026-05-04 03:12 | 26.15486 | 52.44783 | 37818 ft | 449 kts | 293° |
| 2026-05-04 03:12 | 26.18283 | 52.38564 | 37818 ft | 449 kts | 293° |
| 2026-05-04 03:13 | 26.21075 | 52.32352 | 37822 ft | 449 kts | 293° |
| 2026-05-04 03:13 | 26.23848 | 52.26124 | 37823 ft | 448 kts | 292° |
| 2026-05-04 03:14 | 26.26543 | 52.19866 | 37825 ft | 448 kts | 292° |
| 2026-05-04 03:14 | 26.29230 | 52.13600 | 37825 ft | 448 kts | 292° |
| 2026-05-04 03:15 | 26.31924 | 52.07343 | 37828 ft | 448 kts | 292° |
| 2026-05-04 03:15 | 26.34627 | 52.01087 | 37821 ft | 448 kts | 292° |
| 2026-05-04 03:16 | 26.37292 | 51.94818 | 37835 ft | 446 kts | 289° |
| 2026-05-04 03:16 | 26.39553 | 51.88379 | 37837 ft | 446 kts | 288° |
| 2026-05-04 03:17 | 26.41733 | 51.81911 | 37832 ft | 445 kts | 288° |
| 2026-05-04 03:17 | 26.43895 | 51.75437 | 37827 ft | 445 kts | 287° |
| 2026-05-04 03:18 | 26.46054 | 51.68963 | 37836 ft | 445 kts | 287° |
| 2026-05-04 03:18 | 26.48221 | 51.62493 | 37832 ft | 445 kts | 287° |
| 2026-05-04 03:19 | 26.50377 | 51.56022 | 37838 ft | 445 kts | 287° |
| 2026-05-04 03:19 | 26.52522 | 51.49555 | 37838 ft | 444 kts | 287° |
| 2026-05-04 03:20 | 26.54666 | 51.43084 | 37835 ft | 444 kts | 287° |
| 2026-05-04 03:20 | 26.56811 | 51.36610 | 37838 ft | 444 kts | 287° |
| 2026-05-04 03:21 | 26.58955 | 51.30131 | 37838 ft | 444 kts | 287° |
| 2026-05-04 03:21 | 26.61098 | 51.23659 | 37838 ft | 444 kts | 287° |
| 2026-05-04 03:22 | 26.63228 | 51.17224 | 37841 ft | 444 kts | 287° |
| 2026-05-04 03:22 | 26.65369 | 51.10747 | 37839 ft | 444 kts | 287° |
| 2026-05-04 03:23 | 26.67505 | 51.04270 | 37836 ft | 444 kts | 287° |
| 2026-05-04 03:23 | 26.69634 | 50.97782 | 37845 ft | 444 kts | 287° |
| 2026-05-04 03:24 | 26.71712 | 50.91286 | 37841 ft | 444 kts | 286° |
| 2026-05-04 03:24 | 26.73778 | 50.84782 | 37841 ft | 444 kts | 286° |
| 2026-05-04 03:25 | 26.75849 | 50.78277 | 37841 ft | 444 kts | 286° |
| 2026-05-04 03:25 | 26.77920 | 50.71776 | 37845 ft | 443 kts | 286° |
| 2026-05-04 03:26 | 26.80341 | 50.65416 | 37846 ft | 448 kts | 296° |
| 2026-05-04 03:26 | 26.83994 | 50.59692 | 37847 ft | 454 kts | 303° |
| 2026-05-04 03:27 | 26.87982 | 50.54201 | 37847 ft | 455 kts | 304° |
| 2026-05-04 03:27 | 26.92011 | 50.48740 | 37847 ft | 455 kts | 304° |
| 2026-05-04 03:28 | 26.96263 | 50.43462 | 37858 ft | 458 kts | 308° |
| 2026-05-04 03:28 | 27.00712 | 50.38345 | 37852 ft | 458 kts | 308° |
| 2026-05-04 03:29 | 27.05131 | 50.33203 | 37853 ft | 457 kts | 308° |
| 2026-05-04 03:29 | 27.09459 | 50.28041 | 37856 ft | 457 kts | 307° |
| 2026-05-04 03:30 | 27.13769 | 50.22810 | 37862 ft | 456 kts | 307° |
| 2026-05-04 03:30 | 27.18526 | 50.18003 | 37857 ft | 464 kts | 315° |
| 2026-05-04 03:31 | 27.23699 | 50.13637 | 37858 ft | 466 kts | 317° |
| 2026-05-04 03:31 | 27.28935 | 50.09344 | 37862 ft | 466 kts | 317° |
| 2026-05-04 03:32 | 27.34161 | 50.05053 | 37865 ft | 465 kts | 317° |
| 2026-05-04 03:32 | 27.39350 | 50.00713 | 37861 ft | 463 kts | 315° |
| 2026-05-04 03:33 | 27.44407 | 49.96236 | 37863 ft | 462 kts | 315° |
| 2026-05-04 03:33 | 27.49445 | 49.91740 | 37863 ft | 462 kts | 315° |
| 2026-05-04 03:34 | 27.54492 | 49.87270 | 37860 ft | 462 kts | 315° |
| 2026-05-04 03:34 | 27.59549 | 49.82807 | 37860 ft | 461 kts | 315° |
| 2026-05-04 03:35 | 27.64602 | 49.78347 | 37861 ft | 461 kts | 315° |
| 2026-05-04 03:35 | 27.69647 | 49.73888 | 37860 ft | 461 kts | 315° |
| 2026-05-04 03:36 | 27.74696 | 49.69418 | 37862 ft | 461 kts | 314° |
| 2026-05-04 03:36 | 27.79737 | 49.64954 | 37862 ft | 460 kts | 314° |
| 2026-05-04 03:37 | 27.84759 | 49.60477 | 37858 ft | 460 kts | 314° |
| 2026-05-04 03:37 | 27.89774 | 49.55986 | 37864 ft | 460 kts | 314° |
| 2026-05-04 03:38 | 27.94753 | 49.51526 | 37860 ft | 459 kts | 314° |
| 2026-05-04 03:38 | 27.99761 | 49.47040 | 37862 ft | 459 kts | 314° |
| 2026-05-04 03:39 | 28.04799 | 49.42523 | 37859 ft | 459 kts | 314° |
| 2026-05-04 03:39 | 28.09730 | 49.38030 | 37860 ft | 458 kts | 313° |
| 2026-05-04 03:40 | 28.13873 | 49.34231 | 37863 ft | 457 kts | 313° |
| 2026-05-04 03:40 | 28.18822 | 49.29695 | 37861 ft | 457 kts | 313° |
| 2026-05-04 03:41 | 28.23769 | 49.25167 | 37860 ft | 457 kts | 313° |
| 2026-05-04 03:41 | 28.28719 | 49.20638 | 37857 ft | 457 kts | 313° |
| 2026-05-04 03:42 | 28.33659 | 49.16110 | 37858 ft | 456 kts | 313° |
| 2026-05-04 03:42 | 28.38601 | 49.11581 | 37859 ft | 458 kts | 314° |
| 2026-05-04 03:43 | 28.43839 | 49.07385 | 37861 ft | 462 kts | 317° |
| 2026-05-04 03:43 | 28.49162 | 49.03293 | 37860 ft | 462 kts | 317° |
| 2026-05-04 03:44 | 28.54496 | 48.99217 | 37860 ft | 462 kts | 317° |
| 2026-05-04 03:44 | 28.59789 | 48.95160 | 37858 ft | 462 kts | 317° |
| 2026-05-04 03:45 | 28.65116 | 48.91065 | 37859 ft | 462 kts | 317° |
| 2026-05-04 03:45 | 28.70437 | 48.86967 | 37862 ft | 462 kts | 317° |
| 2026-05-04 03:46 | 28.75758 | 48.82864 | 37861 ft | 462 kts | 317° |
| 2026-05-04 03:46 | 28.81074 | 48.78761 | 37858 ft | 462 kts | 317° |
| 2026-05-04 03:47 | 28.86410 | 48.74670 | 37856 ft | 462 kts | 317° |
| 2026-05-04 03:47 | 28.91748 | 48.70584 | 37859 ft | 462 kts | 317° |
| 2026-05-04 03:48 | 28.97084 | 48.66492 | 37858 ft | 462 kts | 316° |
| 2026-05-04 03:48 | 29.02418 | 48.62393 | 37859 ft | 462 kts | 316° |
| 2026-05-04 03:49 | 29.07749 | 48.58291 | 37861 ft | 462 kts | 316° |
| 2026-05-04 03:49 | 29.13080 | 48.54184 | 37861 ft | 462 kts | 316° |
| 2026-05-04 03:50 | 29.18404 | 48.50077 | 37856 ft | 462 kts | 316° |
| 2026-05-04 03:50 | 29.23729 | 48.45964 | 37857 ft | 462 kts | 316° |
| 2026-05-04 03:51 | 29.29048 | 48.41851 | 37859 ft | 461 kts | 316° |
| 2026-05-04 03:51 | 29.34366 | 48.37732 | 37857 ft | 461 kts | 316° |
| 2026-05-04 03:52 | 29.39676 | 48.33615 | 37859 ft | 461 kts | 316° |
| 2026-05-04 03:52 | 29.44959 | 48.29528 | 37859 ft | 462 kts | 317° |
| 2026-05-04 03:53 | 29.50540 | 48.25754 | 37846 ft | 468 kts | 321° |
| 2026-05-04 03:53 | 29.56283 | 48.22128 | 37847 ft | 468 kts | 320° |
| 2026-05-04 03:54 | 29.61919 | 48.18504 | 37842 ft | 467 kts | 320° |
| 2026-05-04 03:54 | 29.67551 | 48.14808 | 37839 ft | 466 kts | 319° |
| 2026-05-04 03:55 | 29.73169 | 48.11090 | 37839 ft | 466 kts | 319° |
| 2026-05-04 03:55 | 29.78793 | 48.07365 | 37840 ft | 466 kts | 319° |
| 2026-05-04 03:56 | 29.82558 | 48.04870 | 37840 ft | 466 kts | 319° |
| 2026-05-04 03:56 | 29.88184 | 48.01141 | 37836 ft | 467 kts | 319° |
| 2026-05-04 03:57 | 29.93817 | 47.97402 | 37844 ft | 467 kts | 319° |
| 2026-05-04 03:57 | 29.99426 | 47.93639 | 37838 ft | 463 kts | 316° |
| 2026-05-04 03:57 | 30.02003 | 47.91486 | 37844 ft | 452 kts | 309° |
| 2026-05-04 03:58 | 30.06331 | 47.86412 | 37844 ft | 440 kts | 302° |
| 2026-05-04 03:58 | 30.10317 | 47.81131 | 37845 ft | 439 kts | 301° |
| 2026-05-04 03:59 | 30.14278 | 47.75783 | 37850 ft | 438 kts | 301° |
| 2026-05-04 03:59 | 30.18250 | 47.70441 | 37848 ft | 438 kts | 301° |
| 2026-05-04 04:00 | 30.22227 | 47.65113 | 37845 ft | 437 kts | 301° |
| 2026-05-04 04:00 | 30.26200 | 47.59789 | 37843 ft | 437 kts | 301° |
| 2026-05-04 04:01 | 30.30168 | 47.54466 | 37842 ft | 436 kts | 301° |
| 2026-05-04 04:01 | 30.34127 | 47.49147 | 37849 ft | 436 kts | 301° |
| 2026-05-04 04:02 | 30.38075 | 47.43834 | 37851 ft | 435 kts | 301° |
| 2026-05-04 04:02 | 30.42015 | 47.38524 | 37847 ft | 435 kts | 300° |
| 2026-05-04 04:03 | 30.45953 | 47.33208 | 37847 ft | 434 kts | 300° |
| 2026-05-04 04:03 | 30.49888 | 47.27891 | 37848 ft | 434 kts | 300° |
| 2026-05-04 04:04 | 30.53822 | 47.22568 | 37841 ft | 435 kts | 300° |
| 2026-05-04 04:04 | 30.58080 | 47.17489 | 37851 ft | 447 kts | 308° |
| 2026-05-04 04:05 | 30.62891 | 47.12862 | 37845 ft | 451 kts | 310° |
| 2026-05-04 04:05 | 30.67791 | 47.08311 | 37849 ft | 452 kts | 310° |
| 2026-05-04 04:06 | 30.72705 | 47.03751 | 37847 ft | 452 kts | 310° |
| 2026-05-04 04:06 | 30.77612 | 46.99169 | 37845 ft | 452 kts | 310° |
| 2026-05-04 04:07 | 30.82513 | 46.94575 | 37849 ft | 453 kts | 309° |
| 2026-05-04 04:07 | 30.87418 | 46.89968 | 37849 ft | 453 kts | 309° |
| 2026-05-04 04:08 | 30.92328 | 46.85352 | 37845 ft | 454 kts | 309° |
| 2026-05-04 04:08 | 30.97242 | 46.80726 | 37840 ft | 454 kts | 309° |
| 2026-05-04 04:09 | 31.02161 | 46.76090 | 37849 ft | 455 kts | 309° |
| 2026-05-04 04:09 | 31.07045 | 46.71480 | 37841 ft | 455 kts | 309° |
| 2026-05-04 04:10 | 31.11960 | 46.66835 | 37838 ft | 455 kts | 309° |
| 2026-05-04 04:10 | 31.16874 | 46.62184 | 37843 ft | 455 kts | 309° |
| 2026-05-04 04:11 | 31.21785 | 46.57530 | 37843 ft | 454 kts | 309° |
| 2026-05-04 04:11 | 31.26690 | 46.52875 | 37842 ft | 454 kts | 309° |
| 2026-05-04 04:12 | 31.31598 | 46.48211 | 37842 ft | 454 kts | 309° |
| 2026-05-04 04:12 | 31.36496 | 46.43548 | 37843 ft | 454 kts | 309° |
| 2026-05-04 04:13 | 31.41390 | 46.38885 | 37844 ft | 454 kts | 309° |
| 2026-05-04 04:13 | 31.46286 | 46.34211 | 37853 ft | 454 kts | 309° |
| 2026-05-04 04:14 | 31.51178 | 46.29536 | 37856 ft | 454 kts | 309° |
| 2026-05-04 04:14 | 31.56068 | 46.24857 | 37863 ft | 454 kts | 309° |
| 2026-05-04 04:15 | 31.60921 | 46.20208 | 37869 ft | 453 kts | 309° |
| 2026-05-04 04:15 | 31.65801 | 46.15525 | 37877 ft | 453 kts | 309° |
| 2026-05-04 04:16 | 31.70676 | 46.10841 | 37878 ft | 453 kts | 309° |
| 2026-05-04 04:16 | 31.75545 | 46.06156 | 37879 ft | 452 kts | 309° |
| 2026-05-04 04:17 | 31.80365 | 46.01429 | 37880 ft | 450 kts | 308° |
| 2026-05-04 04:17 | 31.85134 | 45.96665 | 37881 ft | 450 kts | 308° |
| 2026-05-04 04:18 | 31.89903 | 45.91905 | 37874 ft | 449 kts | 308° |
| 2026-05-04 04:18 | 31.94678 | 45.87151 | 37893 ft | 449 kts | 308° |
| 2026-05-04 04:19 | 31.99446 | 45.82405 | 37888 ft | 449 kts | 308° |
| 2026-05-04 04:19 | 32.04214 | 45.77652 | 37896 ft | 449 kts | 308° |
| 2026-05-04 04:20 | 32.08983 | 45.72891 | 37895 ft | 449 kts | 308° |
| 2026-05-04 04:20 | 32.13746 | 45.68128 | 37900 ft | 449 kts | 308° |
| 2026-05-04 04:21 | 32.18513 | 45.63354 | 37897 ft | 449 kts | 308° |
| 2026-05-04 04:21 | 32.23279 | 45.58575 | 37902 ft | 449 kts | 308° |
| 2026-05-04 04:22 | 32.28044 | 45.53792 | 37909 ft | 449 kts | 308° |
| 2026-05-04 04:22 | 32.32805 | 45.49003 | 37908 ft | 449 kts | 308° |
| 2026-05-04 04:23 | 32.37568 | 45.44208 | 37912 ft | 450 kts | 308° |
| 2026-05-04 04:23 | 32.42329 | 45.39405 | 37920 ft | 450 kts | 308° |
| 2026-05-04 04:24 | 32.47089 | 45.34598 | 37925 ft | 450 kts | 308° |
| 2026-05-04 04:24 | 32.51842 | 45.29792 | 37929 ft | 450 kts | 308° |
| 2026-05-04 04:25 | 32.56800 | 45.25176 | 37935 ft | 459 kts | 313° |
| 2026-05-04 04:25 | 32.62090 | 45.20903 | 37937 ft | 461 kts | 314° |
| 2026-05-04 04:26 | 32.67425 | 45.16688 | 37940 ft | 461 kts | 314° |
| 2026-05-04 04:26 | 32.72763 | 45.12470 | 37951 ft | 461 kts | 314° |
| 2026-05-04 04:27 | 32.78092 | 45.08239 | 37949 ft | 461 kts | 314° |
| 2026-05-04 04:27 | 32.83378 | 45.04028 | 37946 ft | 460 kts | 314° |
| 2026-05-04 04:28 | 32.88698 | 44.99783 | 38008 ft | 460 kts | 314° |
| 2026-05-04 04:28 | 32.94018 | 44.95531 | 37945 ft | 462 kts | 314° |
| 2026-05-04 04:29 | 32.99355 | 44.91259 | 37942 ft | 462 kts | 314° |
| 2026-05-04 04:29 | 33.04697 | 44.86980 | 37940 ft | 463 kts | 314° |
| 2026-05-04 04:30 | 33.09134 | 44.83421 | 37941 ft | 463 kts | 314° |
| 2026-05-04 04:30 | 33.14476 | 44.79128 | 37940 ft | 463 kts | 314° |
| 2026-05-04 04:31 | 33.20104 | 44.75204 | 37929 ft | 482 kts | 324° |
| 2026-05-04 04:31 | 33.23316 | 44.73885 | 37930 ft | 498 kts | 334° |
| 2026-05-04 04:31 | 33.26793 | 44.73186 | 37951 ft | 515 kts | 344° |
| 2026-05-04 04:32 | 33.34014 | 44.72769 | 37935 ft | 523 kts | 347° |
| 2026-05-04 04:32 | 33.41296 | 44.72629 | 37937 ft | 524 kts | 348° |
| 2026-05-04 04:33 | 33.48573 | 44.72475 | 37930 ft | 523 kts | 347° |
| 2026-05-04 04:33 | 33.55844 | 44.72270 | 37933 ft | 522 kts | 347° |
| 2026-05-04 04:34 | 33.63107 | 44.72041 | 37932 ft | 522 kts | 347° |
| 2026-05-04 04:34 | 33.70369 | 44.71808 | 37936 ft | 522 kts | 347° |
| 2026-05-04 04:35 | 33.77628 | 44.71576 | 37934 ft | 522 kts | 347° |
| 2026-05-04 04:35 | 33.84894 | 44.71346 | 37928 ft | 522 kts | 347° |
| 2026-05-04 04:36 | 33.92157 | 44.71117 | 37929 ft | 522 kts | 347° |
| 2026-05-04 04:36 | 33.99427 | 44.70886 | 37934 ft | 522 kts | 347° |
| 2026-05-04 04:37 | 34.13953 | 44.70425 | 37933 ft | 522 kts | 347° |
| 2026-05-04 04:38 | 34.21218 | 44.70193 | 37930 ft | 522 kts | 347° |
| 2026-05-04 04:38 | 34.28481 | 44.69962 | 37930 ft | 522 kts | 347° |
| 2026-05-04 04:39 | 34.35745 | 44.69730 | 37928 ft | 522 kts | 347° |
| 2026-05-04 04:39 | 34.42956 | 44.69499 | 37928 ft | 522 kts | 347° |
| 2026-05-04 04:40 | 34.50134 | 44.68893 | 37924 ft | 506 kts | 338° |
| 2026-05-04 04:40 | 34.53482 | 44.67828 | 37936 ft | 491 kts | 329° |
| 2026-05-04 04:40 | 34.56692 | 44.66452 | 37926 ft | 488 kts | 328° |
| 2026-05-04 04:41 | 34.63003 | 44.63464 | 37936 ft | 486 kts | 326° |
| 2026-05-04 04:41 | 34.69269 | 44.60391 | 37922 ft | 486 kts | 326° |
| 2026-05-04 04:42 | 34.75556 | 44.57325 | 37921 ft | 487 kts | 326° |
| 2026-05-04 04:42 | 34.81855 | 44.54274 | 37917 ft | 488 kts | 326° |
| 2026-05-04 04:43 | 34.88163 | 44.51224 | 37909 ft | 488 kts | 326° |
| 2026-05-04 04:43 | 34.94480 | 44.48165 | 37913 ft | 488 kts | 326° |
| 2026-05-04 04:44 | 35.00791 | 44.45103 | 37910 ft | 489 kts | 326° |
| 2026-05-04 04:44 | 35.07107 | 44.42032 | 37906 ft | 489 kts | 326° |
| 2026-05-04 04:45 | 35.13427 | 44.38954 | 37910 ft | 489 kts | 326° |
| 2026-05-04 04:47 | 35.35493 | 44.28067 | 37918 ft | 487 kts | 325° |
| 2026-05-04 04:47 | 35.41728 | 44.24821 | 37919 ft | 487 kts | 324° |
| 2026-05-04 04:48 | 35.47966 | 44.21581 | 37921 ft | 487 kts | 325° |
| 2026-05-04 04:49 | 35.63575 | 44.13509 | 37922 ft | 487 kts | 325° |
| 2026-05-04 04:49 | 35.69818 | 44.10273 | 37921 ft | 487 kts | 325° |
| 2026-05-04 04:50 | 35.76069 | 44.07028 | 37923 ft | 487 kts | 325° |
| 2026-05-04 04:50 | 35.82314 | 44.03781 | 37927 ft | 488 kts | 325° |
| 2026-05-04 04:51 | 35.88527 | 44.00545 | 37926 ft | 488 kts | 325° |
| 2026-05-04 04:51 | 35.94781 | 43.97280 | 37923 ft | 488 kts | 324° |
| 2026-05-04 04:52 | 36.01033 | 43.94011 | 37922 ft | 489 kts | 324° |
| 2026-05-04 04:52 | 36.07304 | 43.90725 | 37918 ft | 489 kts | 324° |
| 2026-05-04 04:53 | 36.13579 | 43.87432 | 37916 ft | 490 kts | 324° |
| 2026-05-04 04:53 | 36.19859 | 43.84132 | 37905 ft | 491 kts | 324° |
| 2026-05-04 04:54 | 36.26141 | 43.80825 | 37925 ft | 491 kts | 325° |
| 2026-05-04 04:54 | 36.32451 | 43.77524 | 37917 ft | 493 kts | 325° |
| 2026-05-04 04:55 | 36.38781 | 43.74255 | 37917 ft | 493 kts | 325° |
| 2026-05-04 04:55 | 36.45128 | 43.70971 | 37922 ft | 494 kts | 325° |
| 2026-05-04 04:56 | 36.51470 | 43.67679 | 37928 ft | 495 kts | 325° |
| 2026-05-04 04:56 | 36.57828 | 43.64369 | 37934 ft | 495 kts | 325° |
| 2026-05-04 04:57 | 36.64187 | 43.61052 | 37934 ft | 496 kts | 325° |
| 2026-05-04 04:57 | 36.70561 | 43.57722 | 37940 ft | 497 kts | 326° |
| 2026-05-04 04:58 | 36.76934 | 43.54377 | 37950 ft | 497 kts | 325° |
| 2026-05-04 04:58 | 36.83236 | 43.50877 | 37946 ft | 495 kts | 324° |
| 2026-05-04 04:59 | 36.89515 | 43.47314 | 37950 ft | 496 kts | 324° |
| 2026-05-04 04:59 | 36.95775 | 43.43779 | 37959 ft | 497 kts | 324° |
| 2026-05-04 05:00 | 37.02089 | 43.40234 | 37967 ft | 498 kts | 324° |
| 2026-05-04 05:01 | 37.11585 | 43.34898 | 37968 ft | 499 kts | 324° |
| 2026-05-04 05:01 | 37.17914 | 43.31334 | 37968 ft | 499 kts | 324° |
| 2026-05-04 05:02 | 37.24244 | 43.27761 | 37970 ft | 499 kts | 324° |
| 2026-05-04 05:02 | 37.30473 | 43.24002 | 37977 ft | 489 kts | 317° |
| 2026-05-04 05:02 | 37.33222 | 43.21596 | 37985 ft | 475 kts | 309° |
| 2026-05-04 05:03 | 37.35574 | 43.18790 | 37974 ft | 460 kts | 301° |
| 2026-05-04 05:03 | 37.37494 | 43.15645 | 37983 ft | 448 kts | 292° |
| 2026-05-04 05:04 | 37.42018 | 43.05494 | 37973 ft | 443 kts | 288° |
| 2026-05-04 05:04 | 37.44883 | 42.98618 | 37958 ft | 443 kts | 288° |
| 2026-05-04 05:06 | 37.56477 | 42.71133 | 37959 ft | 447 kts | 288° |
| 2026-05-04 05:07 | 37.59396 | 42.64207 | 37947 ft | 448 kts | 288° |
| 2026-05-04 05:07 | 37.62324 | 42.57269 | 37940 ft | 449 kts | 288° |
| 2026-05-04 05:09 | 37.75481 | 42.25841 | 37941 ft | 452 kts | 288° |
| 2026-05-04 05:10 | 37.78411 | 42.18806 | 37930 ft | 453 kts | 289° |
| 2026-05-04 05:10 | 37.81342 | 42.11752 | 37930 ft | 454 kts | 288° |
| 2026-05-04 05:11 | 37.84272 | 42.04676 | 37926 ft | 454 kts | 289° |
| 2026-05-04 05:11 | 37.87188 | 41.97630 | 37929 ft | 455 kts | 289° |
| 2026-05-04 05:12 | 37.90174 | 41.90498 | 37926 ft | 459 kts | 291° |
| 2026-05-04 05:12 | 37.94058 | 41.83900 | 37930 ft | 473 kts | 301° |
| 2026-05-04 05:13 | 37.98392 | 41.77593 | 37930 ft | 476 kts | 302° |
| 2026-05-04 05:13 | 38.02770 | 41.71362 | 37934 ft | 477 kts | 302° |
| 2026-05-04 05:14 | 38.07173 | 41.65065 | 37936 ft | 477 kts | 302° |
| 2026-05-04 05:14 | 38.11558 | 41.58749 | 37937 ft | 477 kts | 302° |
| 2026-05-04 05:15 | 38.15937 | 41.52413 | 37927 ft | 478 kts | 302° |
| 2026-05-04 05:15 | 38.20322 | 41.46056 | 37933 ft | 478 kts | 302° |
| 2026-05-04 05:16 | 38.24708 | 41.39682 | 37941 ft | 479 kts | 302° |
| 2026-05-04 05:16 | 38.29101 | 41.33294 | 37935 ft | 479 kts | 302° |
| 2026-05-04 05:17 | 38.33489 | 41.26897 | 37939 ft | 480 kts | 302° |
| 2026-05-04 05:17 | 38.37882 | 41.20484 | 37942 ft | 480 kts | 302° |
| 2026-05-04 05:18 | 38.41530 | 41.15143 | 37938 ft | 481 kts | 302° |
| 2026-05-04 05:18 | 38.45927 | 41.08695 | 37939 ft | 482 kts | 302° |
| 2026-05-04 05:19 | 38.50274 | 41.02202 | 37939 ft | 481 kts | 301° |
| 2026-05-04 05:19 | 38.54547 | 40.95621 | 37930 ft | 481 kts | 301° |
| 2026-05-04 05:20 | 38.58827 | 40.89020 | 37932 ft | 483 kts | 301° |
| 2026-05-04 05:20 | 38.63122 | 40.82415 | 37929 ft | 484 kts | 302° |
| 2026-05-04 05:21 | 38.67468 | 40.75816 | 37920 ft | 486 kts | 302° |
| 2026-05-04 05:21 | 38.71851 | 40.69214 | 37926 ft | 487 kts | 302° |
| 2026-05-04 05:22 | 38.76237 | 40.62587 | 37927 ft | 488 kts | 302° |
| 2026-05-04 05:22 | 38.80628 | 40.55925 | 37921 ft | 490 kts | 302° |
| 2026-05-04 05:23 | 38.85023 | 40.49238 | 37914 ft | 491 kts | 302° |
| 2026-05-04 05:23 | 38.89427 | 40.42524 | 37914 ft | 492 kts | 302° |
| 2026-05-04 05:24 | 38.93832 | 40.35796 | 37906 ft | 492 kts | 302° |
| 2026-05-04 05:24 | 38.98235 | 40.29055 | 37894 ft | 492 kts | 303° |
| 2026-05-04 05:25 | 39.02636 | 40.22308 | 37903 ft | 493 kts | 303° |
| 2026-05-04 05:25 | 39.07034 | 40.15540 | 37884 ft | 493 kts | 303° |
| 2026-05-04 05:26 | 39.11429 | 40.08765 | 37887 ft | 493 kts | 303° |
| 2026-05-04 05:26 | 39.15826 | 40.01980 | 37891 ft | 493 kts | 303° |
| 2026-05-04 05:28 | 39.33347 | 39.74754 | 37869 ft | 494 kts | 304° |
| 2026-05-04 05:29 | 39.37703 | 39.67948 | 37861 ft | 495 kts | 304° |
| 2026-05-04 05:29 | 39.42094 | 39.61081 | 37848 ft | 495 kts | 304° |
| 2026-05-04 05:31 | 39.59537 | 39.33387 | 37805 ft | 496 kts | 304° |
| 2026-05-04 05:32 | 39.63862 | 39.26382 | 37809 ft | 498 kts | 304° |
| 2026-05-04 05:33 | 39.70373 | 39.15833 | 37791 ft | 501 kts | 304° |
| 2026-05-04 05:33 | 39.74740 | 39.08773 | 37781 ft | 501 kts | 305° |
| 2026-05-04 05:34 | 39.79145 | 39.01759 | 37788 ft | 501 kts | 305° |
| 2026-05-04 05:34 | 39.83561 | 38.94732 | 37770 ft | 502 kts | 305° |
| 2026-05-04 05:35 | 39.87970 | 38.87687 | 37769 ft | 502 kts | 305° |
| 2026-05-04 05:35 | 39.92376 | 38.80620 | 37771 ft | 502 kts | 305° |
| 2026-05-04 05:36 | 39.96778 | 38.73537 | 37775 ft | 503 kts | 305° |
| 2026-05-04 05:36 | 40.01179 | 38.66439 | 37777 ft | 504 kts | 305° |
| 2026-05-04 05:37 | 40.05586 | 38.59318 | 37778 ft | 505 kts | 305° |
| 2026-05-04 05:37 | 40.09969 | 38.52220 | 37783 ft | 506 kts | 305° |
| 2026-05-04 05:38 | 40.16598 | 38.41456 | 37774 ft | 507 kts | 305° |
| 2026-05-04 05:38 | 40.21014 | 38.34265 | 37779 ft | 508 kts | 305° |
| 2026-05-04 05:39 | 40.27653 | 38.23422 | 37777 ft | 509 kts | 305° |
| 2026-05-04 05:40 | 40.33591 | 38.12023 | 37792 ft | 502 kts | 290° |
| 2026-05-04 05:40 | 40.36300 | 38.03604 | 37794 ft | 501 kts | 288° |
| 2026-05-04 05:41 | 40.38837 | 37.95100 | 37801 ft | 501 kts | 288° |
| 2026-05-04 05:41 | 40.41358 | 37.86573 | 37803 ft | 502 kts | 288° |
| 2026-05-04 05:42 | 40.43901 | 37.78021 | 37798 ft | 503 kts | 288° |
| 2026-05-04 05:42 | 40.46450 | 37.69463 | 37803 ft | 504 kts | 288° |
| 2026-05-04 05:43 | 40.49004 | 37.60891 | 37803 ft | 504 kts | 288° |
| 2026-05-04 05:45 | 40.59162 | 37.26420 | 37784 ft | 507 kts | 288° |
| 2026-05-04 05:47 | 40.69286 | 36.91630 | 37798 ft | 510 kts | 288° |
| 2026-05-04 05:47 | 40.71808 | 36.82887 | 37797 ft | 511 kts | 288° |
| 2026-05-04 05:48 | 40.74327 | 36.74128 | 37794 ft | 511 kts | 288° |
| 2026-05-04 05:48 | 40.76825 | 36.65419 | 37801 ft | 512 kts | 288° |
| 2026-05-04 05:49 | 40.79342 | 36.56620 | 37797 ft | 512 kts | 288° |
| 2026-05-04 05:49 | 40.81845 | 36.47813 | 37798 ft | 513 kts | 288° |
| 2026-05-04 05:51 | 40.91821 | 36.12467 | 37783 ft | 514 kts | 288° |
| 2026-05-04 05:52 | 40.94307 | 36.03597 | 37785 ft | 514 kts | 288° |
| 2026-05-04 05:52 | 40.96785 | 35.94726 | 37780 ft | 514 kts | 288° |
| 2026-05-04 05:54 | 41.06632 | 35.59118 | 37781 ft | 516 kts | 288° |
| 2026-05-04 05:55 | 41.09082 | 35.50182 | 37779 ft | 516 kts | 288° |
| 2026-05-04 05:55 | 41.11528 | 35.41231 | 37773 ft | 516 kts | 288° |
| 2026-05-04 05:56 | 41.13963 | 35.32288 | 37768 ft | 516 kts | 288° |
| 2026-05-04 05:56 | 41.16392 | 35.23339 | 37788 ft | 515 kts | 288° |
| 2026-05-04 05:57 | 41.18810 | 35.14391 | 37786 ft | 515 kts | 288° |
| 2026-05-04 05:57 | 41.21221 | 35.05440 | 37787 ft | 514 kts | 288° |
| 2026-05-04 05:58 | 41.23621 | 34.96496 | 37779 ft | 514 kts | 288° |
| 2026-05-04 05:58 | 41.26011 | 34.87559 | 37799 ft | 513 kts | 288° |
| 2026-05-04 05:59 | 41.28394 | 34.78627 | 37784 ft | 513 kts | 288° |
| 2026-05-04 05:59 | 41.30774 | 34.69688 | 37786 ft | 512 kts | 288° |
| 2026-05-04 06:00 | 41.33128 | 34.60809 | 37791 ft | 512 kts | 288° |
| 2026-05-04 06:00 | 41.35491 | 34.51866 | 37796 ft | 513 kts | 288° |
| 2026-05-04 06:01 | 41.37849 | 34.42909 | 37798 ft | 513 kts | 288° |
| 2026-05-04 06:03 | 41.47158 | 34.07005 | 37792 ft | 513 kts | 288° |
| 2026-05-04 06:05 | 41.57136 | 33.68002 | 37803 ft | 513 kts | 288° |
| 2026-05-04 06:06 | 41.59420 | 33.58979 | 37819 ft | 513 kts | 288° |
| 2026-05-04 06:06 | 41.61706 | 33.49958 | 37840 ft | 513 kts | 288° |
| 2026-05-04 06:07 | 41.63973 | 33.40931 | 37841 ft | 512 kts | 288° |
| 2026-05-04 06:07 | 41.66227 | 33.31897 | 37845 ft | 512 kts | 288° |
| 2026-05-04 06:08 | 41.68471 | 33.22883 | 37841 ft | 511 kts | 288° |
| 2026-05-04 06:08 | 41.70712 | 33.13853 | 37845 ft | 511 kts | 288° |
| 2026-05-04 06:09 | 41.72944 | 33.04829 | 37846 ft | 510 kts | 288° |
| 2026-05-04 06:11 | 41.81805 | 32.68681 | 37857 ft | 511 kts | 288° |
| 2026-05-04 06:13 | 41.90551 | 32.32343 | 37872 ft | 512 kts | 288° |
| 2026-05-04 06:14 | 41.98129 | 32.00497 | 37886 ft | 510 kts | 288° |
| 2026-05-04 06:15 | 42.00260 | 31.91416 | 37888 ft | 509 kts | 288° |
| 2026-05-04 06:15 | 42.02389 | 31.82356 | 37889 ft | 507 kts | 288° |
| 2026-05-04 06:16 | 42.04503 | 31.73311 | 37890 ft | 507 kts | 288° |
| 2026-05-04 06:16 | 42.06597 | 31.64315 | 37891 ft | 508 kts | 288° |
| 2026-05-04 06:17 | 42.08702 | 31.55235 | 37901 ft | 508 kts | 288° |
| 2026-05-04 06:17 | 42.10805 | 31.46140 | 37909 ft | 509 kts | 289° |
| 2026-05-04 06:18 | 42.12903 | 31.37032 | 37911 ft | 509 kts | 289° |
| 2026-05-04 06:20 | 42.21217 | 31.00499 | 37917 ft | 510 kts | 289° |
| 2026-05-04 06:21 | 42.26362 | 30.77589 | 37930 ft | 510 kts | 288° |
| 2026-05-04 06:22 | 42.28410 | 30.68412 | 37938 ft | 511 kts | 288° |
| 2026-05-04 06:25 | 42.42555 | 30.03873 | 37970 ft | 511 kts | 288° |
| 2026-05-04 06:26 | 42.44546 | 29.94638 | 37976 ft | 511 kts | 288° |
| 2026-05-04 06:26 | 42.47184 | 29.85756 | 37976 ft | 507 kts | 302° |
| 2026-05-04 06:27 | 42.57548 | 29.66584 | 37988 ft | 504 kts | 309° |
| 2026-05-04 06:28 | 42.61795 | 29.59014 | 38000 ft | 504 kts | 309° |
| 2026-05-04 06:28 | 42.66014 | 29.51419 | 38004 ft | 504 kts | 309° |
| 2026-05-04 06:29 | 42.70228 | 29.43798 | 37998 ft | 504 kts | 309° |
| 2026-05-04 06:29 | 42.74426 | 29.36179 | 38006 ft | 504 kts | 309° |
| 2026-05-04 06:30 | 42.78625 | 29.28543 | 38012 ft | 504 kts | 309° |
| 2026-05-04 06:30 | 42.82820 | 29.20900 | 38017 ft | 504 kts | 309° |
| 2026-05-04 06:31 | 42.87015 | 29.13237 | 38023 ft | 504 kts | 308° |
| 2026-05-04 06:31 | 42.91173 | 29.05619 | 38025 ft | 504 kts | 308° |
| 2026-05-04 06:33 | 43.07896 | 28.74784 | 38026 ft | 505 kts | 308° |
| 2026-05-04 06:34 | 43.12091 | 28.66999 | 38023 ft | 505 kts | 308° |
| 2026-05-04 06:34 | 43.16227 | 28.59303 | 38023 ft | 505 kts | 308° |
| 2026-05-04 06:36 | 43.32794 | 28.28271 | 38020 ft | 503 kts | 307° |
| 2026-05-04 06:37 | 43.36915 | 28.20501 | 38015 ft | 503 kts | 307° |
| 2026-05-04 06:37 | 43.41035 | 28.12715 | 38020 ft | 504 kts | 307° |
| 2026-05-04 06:38 | 43.45149 | 28.04915 | 38019 ft | 504 kts | 307° |
| 2026-05-04 06:40 | 43.61536 | 27.73648 | 38052 ft | 502 kts | 307° |
| 2026-05-04 06:40 | 43.65609 | 27.65825 | 38064 ft | 501 kts | 307° |
| 2026-05-04 06:41 | 43.69670 | 27.58003 | 38060 ft | 501 kts | 307° |
| 2026-05-04 06:41 | 43.73699 | 27.50225 | 38057 ft | 500 kts | 307° |
| 2026-05-04 06:42 | 43.77738 | 27.42403 | 38073 ft | 499 kts | 307° |
| 2026-05-04 06:44 | 43.93821 | 27.11056 | 38078 ft | 498 kts | 307° |
| 2026-05-04 06:44 | 43.97817 | 27.03214 | 38081 ft | 498 kts | 307° |
| 2026-05-04 06:45 | 44.01806 | 26.95364 | 38088 ft | 497 kts | 307° |
| 2026-05-04 06:45 | 44.05785 | 26.87520 | 38091 ft | 496 kts | 307° |
| 2026-05-04 06:46 | 44.10440 | 26.80533 | 38095 ft | 491 kts | 323° |
| 2026-05-04 06:46 | 44.15812 | 26.74703 | 38092 ft | 489 kts | 325° |
| 2026-05-04 06:48 | 44.37583 | 26.52099 | 38090 ft | 487 kts | 326° |
| 2026-05-04 06:50 | 44.59213 | 26.29311 | 38082 ft | 488 kts | 326° |
| 2026-05-04 06:51 | 44.64628 | 26.23572 | 38078 ft | 488 kts | 326° |
| 2026-05-04 06:51 | 44.70052 | 26.17809 | 38078 ft | 489 kts | 325° |
| 2026-05-04 06:52 | 44.75481 | 26.12028 | 38077 ft | 490 kts | 325° |
| 2026-05-04 06:52 | 44.80915 | 26.06229 | 38084 ft | 490 kts | 325° |
| 2026-05-04 06:53 | 44.85460 | 26.01365 | 38085 ft | 490 kts | 325° |
| 2026-05-04 06:53 | 44.90876 | 25.95558 | 38085 ft | 489 kts | 325° |
| 2026-05-04 06:54 | 44.96294 | 25.89735 | 38083 ft | 489 kts | 325° |
| 2026-05-04 06:54 | 45.01710 | 25.83899 | 38080 ft | 489 kts | 325° |
| 2026-05-04 06:55 | 45.07104 | 25.78072 | 38081 ft | 488 kts | 325° |
| 2026-05-04 06:55 | 45.12453 | 25.72281 | 38082 ft | 487 kts | 325° |
| 2026-05-04 06:57 | 45.33889 | 25.48927 | 38094 ft | 485 kts | 325° |
| 2026-05-04 06:58 | 45.39230 | 25.43073 | 38103 ft | 484 kts | 325° |
| 2026-05-04 06:58 | 45.44558 | 25.37222 | 38109 ft | 484 kts | 325° |
| 2026-05-04 06:59 | 45.49888 | 25.31355 | 38122 ft | 484 kts | 325° |
| 2026-05-04 06:59 | 45.55206 | 25.25484 | 38121 ft | 483 kts | 325° |
| 2026-05-04 07:01 | 45.76427 | 25.01904 | 38129 ft | 482 kts | 324° |
| 2026-05-04 07:02 | 45.81710 | 24.95997 | 38136 ft | 481 kts | 324° |
| 2026-05-04 07:02 | 45.86979 | 24.90092 | 38139 ft | 481 kts | 324° |
| 2026-05-04 07:03 | 45.92246 | 24.84177 | 38142 ft | 480 kts | 324° |
| 2026-05-04 07:03 | 45.97499 | 24.78261 | 38137 ft | 480 kts | 324° |
| 2026-05-04 07:04 | 46.02751 | 24.72330 | 38140 ft | 480 kts | 324° |
| 2026-05-04 07:04 | 46.07998 | 24.66390 | 38144 ft | 480 kts | 324° |
| 2026-05-04 07:05 | 46.13233 | 24.60449 | 38140 ft | 479 kts | 324° |
| 2026-05-04 07:05 | 46.18469 | 24.54494 | 38147 ft | 479 kts | 324° |
| 2026-05-04 07:06 | 46.26308 | 24.45551 | 38165 ft | 479 kts | 324° |
| 2026-05-04 07:07 | 46.31493 | 24.39616 | 38159 ft | 478 kts | 324° |
| 2026-05-04 07:09 | 46.52303 | 24.15653 | 38154 ft | 477 kts | 324° |
| 2026-05-04 07:09 | 46.57482 | 24.09651 | 38148 ft | 476 kts | 324° |
| 2026-05-04 07:10 | 46.62648 | 24.03648 | 38143 ft | 475 kts | 324° |
| 2026-05-04 07:12 | 46.83254 | 23.79556 | 38160 ft | 474 kts | 323° |
| 2026-05-04 07:12 | 46.88382 | 23.73524 | 38148 ft | 474 kts | 323° |
| 2026-05-04 07:13 | 46.93518 | 23.67466 | 38153 ft | 474 kts | 323° |
| 2026-05-04 07:13 | 46.98643 | 23.61406 | 38146 ft | 474 kts | 323° |
| 2026-05-04 07:14 | 47.11418 | 23.46232 | 38147 ft | 474 kts | 323° |
| 2026-05-04 07:15 | 47.16536 | 23.40125 | 38151 ft | 474 kts | 323° |
| 2026-05-04 07:15 | 47.21651 | 23.34004 | 38153 ft | 474 kts | 323° |
| 2026-05-04 07:16 | 47.26803 | 23.27825 | 38157 ft | 475 kts | 323° |
| 2026-05-04 07:16 | 47.31891 | 23.21707 | 38154 ft | 475 kts | 323° |
| 2026-05-04 07:17 | 47.37036 | 23.15503 | 38163 ft | 475 kts | 323° |
| 2026-05-04 07:17 | 47.42116 | 23.09364 | 38165 ft | 475 kts | 322° |
| 2026-05-04 07:18 | 47.47229 | 23.03170 | 38169 ft | 475 kts | 322° |
| 2026-05-04 07:18 | 47.52338 | 22.96963 | 38174 ft | 475 kts | 322° |
| 2026-05-04 07:19 | 47.57441 | 22.90745 | 38179 ft | 475 kts | 322° |
| 2026-05-04 07:19 | 47.62542 | 22.84517 | 38183 ft | 475 kts | 322° |
| 2026-05-04 07:20 | 47.67637 | 22.78278 | 38180 ft | 475 kts | 322° |
| 2026-05-04 07:20 | 47.72727 | 22.72029 | 38183 ft | 475 kts | 322° |
| 2026-05-04 07:22 | 47.93057 | 22.46906 | 38176 ft | 475 kts | 322° |
| 2026-05-04 07:23 | 47.98130 | 22.40595 | 38171 ft | 475 kts | 322° |
| 2026-05-04 07:23 | 48.03199 | 22.34273 | 38162 ft | 475 kts | 321° |
| 2026-05-04 07:24 | 48.08270 | 22.27932 | 38164 ft | 475 kts | 321° |
| 2026-05-04 07:24 | 48.13334 | 22.21582 | 38165 ft | 475 kts | 321° |
| 2026-05-04 07:26 | 48.33533 | 21.96123 | 38157 ft | 473 kts | 323° |
| 2026-05-04 07:27 | 48.39158 | 21.91092 | 38169 ft | 470 kts | 338° |
| 2026-05-04 07:27 | 48.45163 | 21.87385 | 38160 ft | 470 kts | 339° |
| 2026-05-04 07:28 | 48.51265 | 21.83842 | 38159 ft | 470 kts | 340° |
| 2026-05-04 07:28 | 48.57362 | 21.80305 | 38161 ft | 470 kts | 339° |
| 2026-05-04 07:29 | 48.63454 | 21.76732 | 38157 ft | 469 kts | 339° |
| 2026-05-04 07:29 | 48.69538 | 21.73138 | 38155 ft | 469 kts | 339° |
| 2026-05-04 07:30 | 48.75623 | 21.69532 | 38151 ft | 469 kts | 339° |
| 2026-05-04 07:30 | 48.81704 | 21.65921 | 38150 ft | 469 kts | 339° |
| 2026-05-04 07:31 | 48.87782 | 21.62303 | 38149 ft | 469 kts | 339° |
| 2026-05-04 07:33 | 49.12074 | 21.47745 | 38138 ft | 469 kts | 339° |
| 2026-05-04 07:33 | 49.18135 | 21.44089 | 38131 ft | 469 kts | 339° |
| 2026-05-04 07:34 | 49.24202 | 21.40420 | 38125 ft | 468 kts | 339° |
| 2026-05-04 07:34 | 49.30261 | 21.36745 | 38119 ft | 468 kts | 339° |
| 2026-05-04 07:35 | 49.36315 | 21.33064 | 38116 ft | 468 kts | 339° |
| 2026-05-04 07:35 | 49.42371 | 21.29374 | 38110 ft | 468 kts | 339° |
| 2026-05-04 07:36 | 49.48374 | 21.25705 | 38105 ft | 468 kts | 339° |
| 2026-05-04 07:38 | 49.72615 | 21.10788 | 38085 ft | 470 kts | 338° |
| 2026-05-04 07:38 | 49.78696 | 21.07021 | 38083 ft | 471 kts | 338° |
| 2026-05-04 07:39 | 49.84779 | 21.03241 | 38081 ft | 471 kts | 338° |
| 2026-05-04 07:39 | 49.90867 | 20.99452 | 38078 ft | 472 kts | 338° |
| 2026-05-04 07:40 | 49.96956 | 20.95648 | 38080 ft | 471 kts | 338° |
| 2026-05-04 07:40 | 50.03039 | 20.91837 | 38075 ft | 472 kts | 338° |
| 2026-05-04 07:41 | 50.09127 | 20.88014 | 38076 ft | 472 kts | 338° |
| 2026-05-04 07:41 | 50.14189 | 20.84829 | 38073 ft | 472 kts | 338° |
| 2026-05-04 07:42 | 50.20276 | 20.80988 | 38069 ft | 472 kts | 338° |
| 2026-05-04 07:42 | 50.26357 | 20.77137 | 38071 ft | 472 kts | 338° |
| 2026-05-04 07:43 | 50.32442 | 20.73275 | 38068 ft | 472 kts | 338° |
| 2026-05-04 07:43 | 50.38535 | 20.69399 | 38068 ft | 472 kts | 338° |
| 2026-05-04 07:44 | 50.44624 | 20.65513 | 38067 ft | 472 kts | 338° |
| 2026-05-04 07:44 | 50.50712 | 20.61616 | 38059 ft | 473 kts | 338° |
| 2026-05-04 07:45 | 50.56793 | 20.57714 | 38060 ft | 472 kts | 338° |
| 2026-05-04 07:45 | 50.62882 | 20.53795 | 38053 ft | 472 kts | 337° |
| 2026-05-04 07:46 | 50.68957 | 20.49874 | 38052 ft | 472 kts | 337° |
| 2026-05-04 07:46 | 50.75025 | 20.45947 | 38051 ft | 471 kts | 337° |
| 2026-05-04 07:47 | 50.81092 | 20.42010 | 38043 ft | 471 kts | 337° |
| 2026-05-04 07:49 | 51.05273 | 20.26205 | 38033 ft | 469 kts | 336° |
| 2026-05-04 07:49 | 51.11308 | 20.22235 | 38026 ft | 469 kts | 336° |
| 2026-05-04 07:50 | 51.17338 | 20.18256 | 38026 ft | 469 kts | 336° |
| 2026-05-04 07:50 | 51.23363 | 20.14267 | 38020 ft | 469 kts | 336° |
| 2026-05-04 07:51 | 51.29391 | 20.10263 | 38017 ft | 469 kts | 336° |
| 2026-05-04 07:51 | 51.35382 | 20.06276 | 38010 ft | 470 kts | 336° |
| 2026-05-04 07:52 | 51.41412 | 20.02251 | 38009 ft | 470 kts | 336° |
| 2026-05-04 07:52 | 51.47477 | 19.98334 | 38007 ft | 471 kts | 337° |
| 2026-05-04 07:54 | 51.72041 | 19.83420 | 37995 ft | 473 kts | 337° |
| 2026-05-04 07:55 | 51.78185 | 19.79619 | 37992 ft | 473 kts | 337° |
| 2026-05-04 07:55 | 51.84334 | 19.75804 | 37999 ft | 473 kts | 337° |
| 2026-05-04 07:56 | 51.90476 | 19.71981 | 37979 ft | 474 kts | 337° |
| 2026-05-04 07:56 | 51.96632 | 19.68143 | 37981 ft | 474 kts | 337° |
| 2026-05-04 07:57 | 52.02789 | 19.64291 | 37978 ft | 475 kts | 337° |
| 2026-05-04 07:57 | 52.08955 | 19.60423 | 37977 ft | 475 kts | 336° |
| 2026-05-04 07:58 | 52.15123 | 19.56542 | 37982 ft | 475 kts | 336° |
| 2026-05-04 07:58 | 52.21295 | 19.52646 | 37974 ft | 476 kts | 336° |
| 2026-05-04 07:59 | 52.27464 | 19.48743 | 37977 ft | 476 kts | 336° |
| 2026-05-04 07:59 | 52.33652 | 19.44813 | 37975 ft | 477 kts | 336° |
| 2026-05-04 08:00 | 52.39794 | 19.40900 | 37972 ft | 477 kts | 336° |
| 2026-05-04 08:02 | 52.64558 | 19.25013 | 37968 ft | 478 kts | 336° |
| 2026-05-04 08:02 | 52.70757 | 19.21004 | 37967 ft | 479 kts | 336° |
| 2026-05-04 08:03 | 52.76958 | 19.16981 | 37967 ft | 479 kts | 335° |
| 2026-05-04 08:03 | 52.83165 | 19.12943 | 37960 ft | 479 kts | 335° |
| 2026-05-04 08:04 | 52.89372 | 19.08893 | 37959 ft | 480 kts | 335° |
| 2026-05-04 08:04 | 52.95590 | 19.04823 | 37960 ft | 480 kts | 335° |
| 2026-05-04 08:05 | 53.01805 | 19.00740 | 37957 ft | 481 kts | 335° |
| 2026-05-04 08:05 | 53.08024 | 18.96645 | 37959 ft | 481 kts | 335° |
| 2026-05-04 08:06 | 53.14240 | 18.92538 | 37957 ft | 481 kts | 335° |
| 2026-05-04 08:06 | 53.20464 | 18.88414 | 37954 ft | 481 kts | 335° |
| 2026-05-04 08:08 | 53.45339 | 18.71797 | 37939 ft | 481 kts | 334° |
| 2026-05-04 08:11 | 53.73287 | 18.52876 | 37928 ft | 482 kts | 334° |
| 2026-05-04 08:11 | 53.82659 | 18.46470 | 37928 ft | 482 kts | 334° |
| 2026-05-04 08:12 | 53.88851 | 18.42219 | 37923 ft | 483 kts | 334° |
| 2026-05-04 08:12 | 53.95071 | 18.37935 | 37917 ft | 483 kts | 334° |
| 2026-05-04 08:13 | 54.01294 | 18.33636 | 37918 ft | 483 kts | 334° |
| 2026-05-04 08:13 | 54.07517 | 18.29326 | 37913 ft | 483 kts | 333° |
| 2026-05-04 08:14 | 54.13734 | 18.25005 | 37904 ft | 482 kts | 333° |
| 2026-05-04 08:16 | 54.38576 | 18.07594 | 37908 ft | 482 kts | 333° |
| 2026-05-04 08:16 | 54.44781 | 18.03209 | 37907 ft | 482 kts | 333° |
| 2026-05-04 08:17 | 54.50983 | 17.98811 | 37902 ft | 482 kts | 333° |
| 2026-05-04 08:17 | 54.57189 | 17.94397 | 37900 ft | 482 kts | 333° |
| 2026-05-04 08:19 | 54.81958 | 17.76630 | 37892 ft | 483 kts | 332° |
| 2026-05-04 08:20 | 54.88160 | 17.72144 | 37890 ft | 483 kts | 332° |
| 2026-05-04 08:20 | 54.94369 | 17.67639 | 37889 ft | 484 kts | 332° |
| 2026-05-04 08:21 | 55.00579 | 17.63117 | 37886 ft | 484 kts | 332° |
| 2026-05-04 08:21 | 55.06790 | 17.58580 | 37880 ft | 484 kts | 332° |
| 2026-05-04 08:22 | 55.13006 | 17.54024 | 37880 ft | 485 kts | 332° |
| 2026-05-04 08:24 | 55.37901 | 17.35619 | 37863 ft | 486 kts | 332° |
| 2026-05-04 08:24 | 55.44130 | 17.30975 | 37859 ft | 486 kts | 332° |
| 2026-05-04 08:25 | 55.50360 | 17.26314 | 37852 ft | 486 kts | 332° |
| 2026-05-04 08:25 | 55.56580 | 17.21644 | 37850 ft | 486 kts | 332° |
| 2026-05-04 08:27 | 55.81101 | 17.21600 | 37832 ft | 477 kts | 43° |
| 2026-05-04 08:28 | 55.83240 | 17.26121 | 37825 ft | 480 kts | 55° |
| 2026-05-04 08:28 | 55.84383 | 17.29496 | 37825 ft | 481 kts | 63° |
| 2026-05-04 08:28 | 55.85632 | 17.35008 | 37824 ft | 480 kts | 75° |
| 2026-05-04 08:28 | 55.86247 | 17.40817 | 37825 ft | 477 kts | 88° |
| 2026-05-04 08:29 | 55.86187 | 17.46696 | 37827 ft | 473 kts | 101° |
| 2026-05-04 08:29 | 55.85462 | 17.52354 | 37824 ft | 467 kts | 113° |
| 2026-05-04 08:29 | 55.83579 | 17.59133 | 37825 ft | 458 kts | 129° |
| 2026-05-04 08:31 | 55.66282 | 17.77205 | 37836 ft | 434 kts | 163° |
| 2026-05-04 08:33 | 55.47476 | 17.72450 | 37853 ft | 400 kts | 225° |
| 2026-05-04 08:33 | 55.45614 | 17.68820 | 37859 ft | 398 kts | 234° |
| 2026-05-04 08:35 | 55.44553 | 17.36315 | 37859 ft | 417 kts | 297° |
| 2026-05-04 08:35 | 55.46270 | 17.32164 | 37859 ft | 423 kts | 307° |
| 2026-05-04 08:35 | 55.50929 | 17.25665 | 37855 ft | 437 kts | 328° |
| 2026-05-04 08:37 | 55.67912 | 17.12719 | 37838 ft | 453 kts | 329° |
| 2026-05-04 08:37 | 55.70754 | 17.10188 | 37836 ft | 460 kts | 328° |
| 2026-05-04 08:38 | 55.76518 | 17.04878 | 37643 ft | 468 kts | 328° |
| 2026-05-04 08:38 | 55.79404 | 17.02229 | 37028 ft | 470 kts | 327° |
| 2026-05-04 08:38 | 55.82342 | 16.99545 | 36772 ft | 478 kts | 327° |
| 2026-05-04 08:40 | 56.03421 | 16.80378 | 36369 ft | 486 kts | 327° |
| 2026-05-04 08:40 | 56.06427 | 16.77625 | 36349 ft | 486 kts | 327° |
| 2026-05-04 08:41 | 56.12455 | 16.72090 | 36298 ft | 487 kts | 327° |
| 2026-05-04 08:41 | 56.18436 | 16.66577 | 36264 ft | 487 kts | 327° |
| 2026-05-04 08:42 | 56.24496 | 16.60973 | 36209 ft | 487 kts | 327° |
| 2026-05-04 08:42 | 56.30509 | 16.55391 | 36161 ft | 487 kts | 327° |
| 2026-05-04 08:43 | 56.36524 | 16.49788 | 36115 ft | 487 kts | 327° |
| 2026-05-04 08:43 | 56.42541 | 16.44163 | 36072 ft | 487 kts | 327° |
| 2026-05-04 08:44 | 56.48514 | 16.38560 | 36033 ft | 487 kts | 327° |
| 2026-05-04 08:46 | 56.72547 | 16.15809 | 35861 ft | 487 kts | 326° |
| 2026-05-04 08:46 | 56.78550 | 16.10074 | 35810 ft | 487 kts | 326° |
| 2026-05-04 08:47 | 56.84557 | 16.04317 | 35758 ft | 487 kts | 326° |
| 2026-05-04 08:47 | 56.90558 | 15.98542 | 35723 ft | 488 kts | 326° |
| 2026-05-04 08:48 | 56.96559 | 15.92747 | 35677 ft | 488 kts | 326° |
| 2026-05-04 08:48 | 57.02556 | 15.86933 | 35638 ft | 488 kts | 326° |
| 2026-05-04 08:49 | 57.08569 | 15.81079 | 35778 ft | 491 kts | 326° |
| 2026-05-04 08:50 | 57.29545 | 15.60507 | 35785 ft | 488 kts | 326° |
| 2026-05-04 08:51 | 57.35518 | 15.54598 | 35784 ft | 488 kts | 326° |
| 2026-05-04 08:51 | 57.41512 | 15.48646 | 35789 ft | 488 kts | 326° |
| 2026-05-04 08:52 | 57.47494 | 15.42683 | 35781 ft | 488 kts | 326° |
| 2026-05-04 08:52 | 57.53426 | 15.36750 | 35780 ft | 488 kts | 326° |
| 2026-05-04 08:54 | 57.77322 | 15.12621 | 35773 ft | 488 kts | 326° |
| 2026-05-04 08:55 | 57.83289 | 15.06537 | 35775 ft | 488 kts | 326° |
| 2026-05-04 08:55 | 57.89247 | 15.00441 | 35771 ft | 488 kts | 326° |
| 2026-05-04 09:01 | 58.51636 | 14.35175 | 35748 ft | 487 kts | 325° |
| 2026-05-04 09:01 | 58.57547 | 14.28852 | 35753 ft | 487 kts | 324° |
| 2026-05-04 09:02 | 58.63457 | 14.22503 | 35751 ft | 487 kts | 324° |
| 2026-05-04 09:02 | 58.69361 | 14.16139 | 35780 ft | 486 kts | 324° |
| 2026-05-04 09:03 | 58.75223 | 14.09795 | 35860 ft | 486 kts | 324° |
| 2026-05-04 09:03 | 58.81108 | 14.03402 | 35867 ft | 486 kts | 324° |
| 2026-05-04 09:04 | 58.87002 | 13.96974 | 35866 ft | 486 kts | 324° |
| 2026-05-04 09:04 | 58.92890 | 13.90526 | 35859 ft | 486 kts | 324° |
| 2026-05-04 09:05 | 58.98767 | 13.84065 | 35864 ft | 486 kts | 324° |
| 2026-05-04 09:05 | 59.04652 | 13.77568 | 35866 ft | 486 kts | 324° |
| 2026-05-04 09:06 | 59.10526 | 13.71059 | 35857 ft | 486 kts | 324° |
| 2026-05-04 09:08 | 59.33985 | 13.44799 | 35847 ft | 486 kts | 324° |
| 2026-05-04 09:08 | 59.39840 | 13.38180 | 35851 ft | 485 kts | 324° |
| 2026-05-04 09:09 | 59.45675 | 13.31565 | 35735 ft | 479 kts | 324° |
| 2026-05-04 09:09 | 59.48564 | 13.28332 | 35184 ft | 477 kts | 324° |
| 2026-05-04 09:09 | 59.51443 | 13.25137 | 34847 ft | 481 kts | 324° |
| 2026-05-04 09:10 | 59.57306 | 13.18622 | 34741 ft | 486 kts | 324° |
| 2026-05-04 09:10 | 59.63171 | 13.12083 | 34294 ft | 480 kts | 324° |
| 2026-05-04 09:10 | 59.66083 | 13.08820 | 33333 ft | 484 kts | 323° |
| 2026-05-04 09:11 | 59.69021 | 13.05505 | 32324 ft | 487 kts | 323° |